AAL2057 KLAX-KPHX
Flight info
| Callsign | AAL2057 |
|---|---|
| Flight time | N/A |
| Altitude | 35000 |
| Route | DOTSS2 CNERY BLH HYDRR1 |
| Aircraft | A21N/M-SDE2E3FGHIJ1RWXY/LB1 |
Departure
| Time | 2026-04-23 08:18 |
|---|---|
| Airport | Los Angeles International Airport (KLAX) |
Arrival
| Time | N/A |
|---|---|
| Airport | Phoenix Sky Harbor International Airport (KPHX) |
| Time | Latitude | Longitude | Altitude | Speed | Heading |
|---|---|---|---|---|---|
| 2026-04-23 08:08 | 33.93951 | -118.40641 | 98 ft | 0 kts | 344° |
| 2026-04-23 08:10 | 33.93949 | -118.40640 | 98 ft | 2 kts | 344° |
| 2026-04-23 08:10 | 33.93908 | -118.40640 | 98 ft | 4 kts | 33° |
| 2026-04-23 08:11 | 33.93895 | -118.40662 | 100 ft | 3 kts | 82° |
| 2026-04-23 08:11 | 33.93894 | -118.40670 | 99 ft | 0 kts | 83° |
| 2026-04-23 08:13 | 33.93896 | -118.40641 | 100 ft | 7 kts | 87° |
| 2026-04-23 08:14 | 33.93896 | -118.40562 | 99 ft | 12 kts | 117° |
| 2026-04-23 08:14 | 33.93829 | -118.40479 | 100 ft | 17 kts | 91° |
| 2026-04-23 08:14 | 33.93846 | -118.40320 | 101 ft | 21 kts | 83° |
| 2026-04-23 08:14 | 33.93864 | -118.40133 | 102 ft | 25 kts | 83° |
| 2026-04-23 08:15 | 33.93888 | -118.39910 | 101 ft | 28 kts | 82° |
| 2026-04-23 08:15 | 33.93913 | -118.39666 | 100 ft | 31 kts | 84° |
| 2026-04-23 08:15 | 33.93938 | -118.39405 | 102 ft | 24 kts | 83° |
| 2026-04-23 08:15 | 33.93960 | -118.39208 | 100 ft | 25 kts | 82° |
| 2026-04-23 08:16 | 33.93982 | -118.38982 | 100 ft | 29 kts | 83° |
| 2026-04-23 08:16 | 33.94008 | -118.38729 | 101 ft | 32 kts | 82° |
| 2026-04-23 08:16 | 33.94033 | -118.38499 | 101 ft | 17 kts | 83° |
| 2026-04-23 08:16 | 33.94042 | -118.38380 | 101 ft | 1 kts | 101° |
| 2026-04-23 08:17 | 33.94031 | -118.38354 | 101 ft | 7 kts | 131° |
| 2026-04-23 08:17 | 33.93971 | -118.38339 | 103 ft | 12 kts | 214° |
| 2026-04-23 08:17 | 33.93939 | -118.38453 | 105 ft | 17 kts | 263° |
| 2026-04-23 08:17 | 33.93908 | -118.38759 | 101 ft | 75 kts | 263° |
| 2026-04-23 08:18 | 33.93812 | -118.39706 | 104 ft | 151 kts | 262° |
| 2026-04-23 08:18 | 33.93650 | -118.41221 | 302 ft | 216 kts | 263° |
| 2026-04-23 08:18 | 33.93454 | -118.43237 | 961 ft | 256 kts | 263° |
| 2026-04-23 08:18 | 33.93189 | -118.45266 | 1861 ft | 257 kts | 256° |
| 2026-04-23 08:19 | 33.92356 | -118.47254 | 3042 ft | 272 kts | 236° |
| 2026-04-23 08:19 | 33.91179 | -118.49057 | 3983 ft | 275 kts | 232° |
| 2026-04-23 08:19 | 33.89946 | -118.50824 | 4514 ft | 276 kts | 231° |
| 2026-04-23 08:19 | 33.88693 | -118.52555 | 5314 ft | 272 kts | 231° |
| 2026-04-23 08:20 | 33.87421 | -118.54267 | 6692 ft | 276 kts | 227° |
| 2026-04-23 08:20 | 33.85832 | -118.55566 | 8045 ft | 287 kts | 206° |
| 2026-04-23 08:20 | 33.84089 | -118.55989 | 9341 ft | 301 kts | 184° |
| 2026-04-23 08:20 | 33.81942 | -118.55608 | 10739 ft | 328 kts | 172° |
| 2026-04-23 08:21 | 33.79612 | -118.54918 | 12004 ft | 353 kts | 171° |
| 2026-04-23 08:21 | 33.77166 | -118.54180 | 13536 ft | 373 kts | 172° |
| 2026-04-23 08:21 | 33.74564 | -118.53431 | 14961 ft | 395 kts | 172° |
| 2026-04-23 08:21 | 33.71875 | -118.52273 | 16283 ft | 429 kts | 158° |
| 2026-04-23 08:22 | 33.69317 | -118.50160 | 17588 ft | 465 kts | 142° |
| 2026-04-23 08:22 | 33.67105 | -118.47131 | 18826 ft | 500 kts | 127° |
| 2026-04-23 08:22 | 33.65504 | -118.43489 | 19895 ft | 497 kts | 113° |
| 2026-04-23 08:22 | 33.64667 | -118.39524 | 20926 ft | 483 kts | 98° |
| 2026-04-23 08:23 | 33.64370 | -118.35597 | 22143 ft | 461 kts | 92° |
| 2026-04-23 08:23 | 33.64310 | -118.31797 | 23419 ft | 457 kts | 88° |
| 2026-04-23 08:23 | 33.64379 | -118.27939 | 24551 ft | 467 kts | 88° |
| 2026-04-23 08:23 | 33.64421 | -118.24002 | 25645 ft | 479 kts | 89° |
| 2026-04-23 08:24 | 33.64441 | -118.19957 | 26746 ft | 491 kts | 90° |
| 2026-04-23 08:24 | 33.64444 | -118.15792 | 27838 ft | 503 kts | 90° |
| 2026-04-23 08:24 | 33.64446 | -118.11542 | 28905 ft | 515 kts | 90° |
| 2026-04-23 08:24 | 33.64446 | -118.07190 | 29969 ft | 528 kts | 91° |
| 2026-04-23 08:25 | 33.64431 | -118.02730 | 30867 ft | 540 kts | 91° |
| 2026-04-23 08:25 | 33.64407 | -117.98184 | 31664 ft | 550 kts | 91° |
| 2026-04-23 08:25 | 33.64386 | -117.93565 | 32410 ft | 556 kts | 91° |
| 2026-04-23 08:25 | 33.64372 | -117.88906 | 33148 ft | 560 kts | 91° |
| 2026-04-23 08:26 | 33.64372 | -117.84211 | 33858 ft | 564 kts | 92° |
| 2026-04-23 08:26 | 33.64153 | -117.79509 | 34420 ft | 565 kts | 101° |
| 2026-04-23 08:26 | 33.63319 | -117.74910 | 34873 ft | 562 kts | 111° |
| 2026-04-23 08:26 | 33.62207 | -117.70405 | 35105 ft | 564 kts | 112° |
| 2026-04-23 08:27 | 33.59862 | -117.61339 | 35145 ft | 581 kts | 112° |